Time;durP1;ratioP1;P1;durP2;ratioP2;P2;SDS_P1;SDS_P2;PMS_P1;PMS_P2;Temp;Humidity;BMP_temperature;BMP_pressure;BME280_temperature;BME280_humidity;BME280_pressure;Samples;Min_cycle;Max_cycle;Signal;HPM_P1;HPM_P2
2022/03/21 00:00:56;;;;;;;29.47;23.60;;;12.00;99.60;;;;;;5051708;28;20476;-66
2022/03/21 00:03:29;;;;;;;29.00;23.83;;;12.00;99.40;;;;;;5052929;28;20534;-67
2022/03/21 00:05:57;;;;;;;34.43;26.40;;;12.00;99.60;;;;;;5054092;28;20454;-66
2022/03/21 00:08:24;;;;;;;33.50;25.23;;;12.00;99.50;;;;;;5053042;28;20941;-66
2022/03/21 00:10:51;;;;;;;37.90;25.13;;;11.90;99.70;;;;;;5053396;28;20833;-66
2022/03/21 00:13:17;;;;;;;33.60;25.80;;;12.00;99.80;;;;;;5053584;28;20424;-66
2022/03/21 00:15:44;;;;;;;30.90;25.13;;;11.90;99.70;;;;;;5052991;28;20460;-66
2022/03/21 00:18:13;;;;;;;34.30;26.03;;;11.90;99.70;;;;;;5053548;28;20514;-66
2022/03/21 00:20:47;;;;;;;33.33;27.37;;;11.90;99.80;;;;;;5052803;28;20452;-66
2022/03/21 00:23:13;;;;;;;33.37;26.03;;;11.80;99.80;;;;;;5053458;28;20488;-66
2022/03/21 00:25:39;;;;;;;33.40;26.10;;;11.90;99.90;;;;;;5052677;28;20478;-66
2022/03/21 00:28:07;;;;;;;32.97;25.87;;;11.80;99.80;;;;;;5053348;28;20453;-66
2022/03/21 00:30:34;;;;;;;33.27;25.70;;;11.80;99.90;;;;;;5051475;28;20452;-66
2022/03/21 00:33:01;;;;;;;37.80;24.83;;;11.80;99.90;;;;;;5053353;28;20416;-66
2022/03/21 00:35:28;;;;;;;33.93;26.57;;;11.80;99.90;;;;;;5052282;28;20431;-66
2022/03/21 00:37:54;;;;;;;34.00;26.03;;;11.80;99.90;;;;;;5051968;28;20819;-66
2022/03/21 00:40:20;;;;;;;31.77;26.80;;;11.80;99.90;;;;;;5053382;28;20419;-66
2022/03/21 00:42:47;;;;;;;28.87;24.30;;;11.80;99.90;;;;;;5052703;28;20420;-66
2022/03/21 00:45:15;;;;;;;32.53;24.87;;;11.80;99.90;;;;;;5052961;28;20240;-66
2022/03/21 00:47:42;;;;;;;29.53;23.87;;;11.70;99.90;;;;;;5052426;28;20412;-66
2022/03/21 00:50:10;;;;;;;28.10;24.63;;;11.80;99.90;;;;;;5052938;28;20452;-66
2022/03/21 00:52:47;;;;;;;31.50;24.30;;;11.80;99.90;;;;;;5052024;28;20490;-66
2022/03/21 00:55:14;;;;;;;31.50;23.90;;;11.80;99.90;;;;;;5052620;28;20820;-66
2022/03/21 00:57:40;;;;;;;31.80;23.20;;;11.90;99.90;;;;;;5052278;28;20468;-66
2022/03/21 01:00:09;;;;;;;25.20;22.10;;;11.80;99.90;;;;;;5052921;28;20428;-66
2022/03/21 01:02:36;;;;;;;30.23;24.83;;;11.80;99.90;;;;;;5051840;28;20487;-66
2022/03/21 01:05:02;;;;;;;27.53;24.40;;;11.80;99.90;;;;;;5053015;28;20898;-66
2022/03/21 01:07:28;;;;;;;28.90;24.03;;;11.80;99.90;;;;;;5050883;28;20459;-66
2022/03/21 01:09:54;;;;;;;29.50;23.60;;;11.80;99.90;;;;;;5052781;28;20414;-66
2022/03/21 01:12:20;;;;;;;28.63;23.23;;;11.80;99.90;;;;;;5053026;28;20460;-66
2022/03/21 01:14:46;;;;;;;29.87;21.83;;;11.80;99.90;;;;;;5050849;28;20547;-66
2022/03/21 01:17:11;;;;;;;27.00;23.00;;;11.80;99.90;;;;;;5052677;28;20427;-66
2022/03/21 01:19:37;;;;;;;26.60;22.77;;;11.80;99.90;;;;;;5051864;28;20255;-66
2022/03/21 01:22:05;;;;;;;26.47;21.37;;;11.80;99.90;;;;;;5052981;28;20298;-66
2022/03/21 01:24:32;;;;;;;23.67;20.60;;;11.80;99.90;;;;;;5050823;28;20195;-66
2022/03/21 01:26:58;;;;;;;25.87;22.53;;;11.80;99.90;;;;;;5052434;28;20643;-66
2022/03/21 01:29:23;;;;;;;25.63;21.73;;;11.80;99.90;;;;;;5052460;28;20422;-66
2022/03/21 01:31:49;;;;;;;25.10;21.43;;;11.70;99.90;;;;;;5051584;28;20244;-66
2022/03/21 01:34:15;;;;;;;26.73;21.33;;;11.80;99.90;;;;;;5052716;28;20177;-66
2022/03/21 01:36:41;;;;;;;27.87;21.60;;;11.80;99.90;;;;;;5052113;28;20180;-66
2022/03/21 01:39:07;;;;;;;24.03;20.27;;;11.80;99.90;;;;;;5051244;28;20422;-66
2022/03/21 01:41:33;;;;;;;24.93;22.07;;;11.70;99.90;;;;;;5051718;28;20415;-66
2022/03/21 01:44:05;;;;;;;26.27;21.17;;;11.70;99.90;;;;;;5052107;28;20416;-66
2022/03/21 01:46:33;;;;;;;29.37;21.40;;;11.60;99.90;;;;;;5051771;28;20642;-66
2022/03/21 01:49:00;;;;;;;24.70;21.47;;;11.60;99.90;;;;;;5052269;28;20429;-66
2022/03/21 01:51:27;;;;;;;24.70;21.77;;;11.60;99.90;;;;;;5052230;28;20484;-66
2022/03/21 01:56:43;;;;;;;21.90;19.70;;;11.50;99.90;;;;;;5051684;28;20803;-66
2022/03/21 01:59:09;;;;;;;25.63;20.70;;;11.50;99.90;;;;;;5052143;28;20433;-66
2022/03/21 02:01:36;;;;;;;22.93;20.17;;;11.50;99.90;;;;;;5052079;28;20432;-66
2022/03/21 02:04:02;;;;;;;23.70;19.03;;;11.60;99.90;;;;;;5052248;28;20404;-66
2022/03/21 02:06:28;;;;;;;22.83;20.43;;;11.50;99.90;;;;;;5051489;28;20477;-70
2022/03/21 02:08:59;;;;;;;24.40;19.40;;;11.60;99.90;;;;;;5052120;28;20505;-66
2022/03/21 02:11:26;;;;;;;25.43;21.63;;;11.60;99.90;;;;;;5051869;28;20438;-66
2022/03/21 02:13:56;;;;;;;25.30;21.90;;;11.60;99.90;;;;;;5051588;28;20419;-66
2022/03/21 02:16:23;;;;;;;23.33;20.70;;;11.50;99.90;;;;;;5055863;28;20484;-66
2022/03/21 02:18:49;;;;;;;26.70;20.87;;;11.50;99.90;;;;;;5055175;28;20411;-66
2022/03/21 02:21:25;;;;;;;26.10;19.63;;;11.50;99.90;;;;;;5055839;28;20512;-66
2022/03/21 02:24:14;;;;;;;24.83;21.33;;;11.50;99.90;;;;;;5055142;28;20496;-66
2022/03/21 02:26:41;;;;;;;30.07;22.70;;;11.50;99.90;;;;;;5054669;28;20823;-66
2022/03/21 02:29:07;;;;;;;29.23;23.00;;;11.50;99.90;;;;;;5055581;28;20443;-66
2022/03/21 02:31:34;;;;;;;31.13;23.80;;;11.50;99.90;;;;;;5054664;28;20423;-66
2022/03/21 02:34:01;;;;;;;29.50;23.50;;;11.50;99.90;;;;;;5055442;28;20448;-66
2022/03/21 02:36:28;;;;;;;34.17;24.57;;;11.50;99.90;;;;;;5055429;28;20418;-66
2022/03/21 02:38:57;;;;;;;26.80;22.40;;;11.50;99.90;;;;;;5054828;28;20412;-66
2022/03/21 02:41:23;;;;;;;28.03;24.50;;;11.50;99.90;;;;;;5055420;28;20413;-66
2022/03/21 02:43:57;;;;;;;27.63;22.27;;;11.50;99.90;;;;;;5054701;28;20947;-66
2022/03/21 02:46:24;;;;;;;32.50;23.50;;;11.50;99.90;;;;;;5055234;28;20346;-66
2022/03/21 02:48:54;;;;;;;27.40;22.33;;;11.50;99.90;;;;;;5054363;28;21065;-66
2022/03/21 02:51:21;;;;;;;25.97;21.40;;;11.50;99.90;;;;;;5055483;28;20408;-66
2022/03/21 02:53:50;;;;;;;24.23;20.30;;;11.50;99.90;;;;;;5054283;28;20906;-65
2022/03/21 02:56:16;;;;;;;24.23;20.43;;;11.50;99.90;;;;;;5055221;28;20418;-66
2022/03/21 02:58:42;;;;;;;29.93;21.10;;;11.40;99.90;;;;;;5054477;28;20412;-66
2022/03/21 03:01:14;;;;;;;29.87;21.50;;;11.40;99.90;;;;;;5055187;28;20512;-66
2022/03/21 03:03:40;;;;;;;24.67;20.57;;;11.40;99.90;;;;;;5054128;28;20241;-66
2022/03/21 03:06:06;;;;;;;24.40;20.50;;;11.50;99.90;;;;;;5055075;28;20862;-66
2022/03/21 03:08:33;;;;;;;26.73;21.23;;;11.40;99.90;;;;;;5053991;28;20408;-67
2022/03/21 03:10:59;;;;;;;26.70;20.40;;;11.30;99.90;;;;;;5054878;28;20408;-66
2022/03/21 03:13:25;;;;;;;27.00;21.07;;;11.10;99.90;;;;;;5054559;28;20419;-66
2022/03/21 03:15:51;;;;;;;28.40;21.43;;;10.90;99.90;;;;;;5054164;28;20182;-66
2022/03/21 03:18:17;;;;;;;28.43;21.23;;;11.00;99.90;;;;;;5055046;28;20174;-66
2022/03/21 03:20:48;;;;;;;28.70;22.80;;;11.00;99.90;;;;;;5053700;28;20553;-66
2022/03/21 03:23:14;;;;;;;26.30;21.73;;;11.10;99.90;;;;;;5054339;28;20922;-66
2022/03/21 03:25:40;;;;;;;25.73;20.43;;;11.10;99.90;;;;;;5053625;28;20456;-66
2022/03/21 03:28:06;;;;;;;25.53;20.73;;;11.10;99.90;;;;;;5054495;28;20446;-66
2022/03/21 03:30:34;;;;;;;27.67;21.67;;;11.10;99.90;;;;;;5054290;28;20614;-66
2022/03/21 03:33:00;;;;;;;28.20;19.90;;;11.10;99.90;;;;;;5054675;28;20188;-66
2022/03/21 03:35:26;;;;;;;26.13;21.33;;;11.10;99.90;;;;;;5054366;28;20493;-66
2022/03/21 03:37:51;;;;;;;24.53;20.77;;;11.00;99.90;;;;;;5053407;28;20507;-66
2022/03/21 03:40:18;;;;;;;26.00;21.33;;;11.00;99.90;;;;;;5054281;28;20423;-66
2022/03/21 03:42:44;;;;;;;24.77;21.10;;;10.80;99.90;;;;;;5052478;28;20584;-66
2022/03/21 03:45:10;;;;;;;30.70;22.33;;;10.50;99.90;;;;;;5054136;28;20405;-65
2022/03/21 03:47:36;;;;;;;27.73;22.40;;;10.40;99.90;;;;;;5053663;28;20176;-66
2022/03/21 03:50:03;;;;;;;27.50;21.90;;;10.50;99.90;;;;;;5052591;28;20416;-66
2022/03/21 03:52:28;;;;;;;30.30;22.87;;;10.60;99.90;;;;;;5054442;28;20183;-66
2022/03/21 03:54:54;;;;;;;26.77;20.30;;;10.50;99.90;;;;;;5053096;28;20432;-65
2022/03/21 03:57:20;;;;;;;26.17;20.43;;;10.50;99.90;;;;;;5054061;28;20233;-66
2022/03/21 03:59:46;;;;;;;29.77;22.83;;;10.50;99.90;;;;;;5053251;28;20178;-66
2022/03/21 04:02:11;;;;;;;26.90;21.83;;;10.30;99.90;;;;;;5053490;28;20427;-66
2022/03/21 04:04:37;;;;;;;27.97;20.80;;;10.20;99.90;;;;;;5053256;28;20178;-66
2022/03/21 04:07:03;;;;;;;27.70;22.27;;;10.10;99.90;;;;;;5053668;28;20218;-66
2022/03/21 04:09:29;;;;;;;29.27;22.30;;;10.10;99.90;;;;;;5052483;28;20475;-66
2022/03/21 04:11:55;;;;;;;29.70;23.93;;;10.20;99.90;;;;;;5053087;28;20995;-66
2022/03/21 04:14:20;;;;;;;29.23;21.40;;;10.30;99.90;;;;;;5053284;28;20190;-66
2022/03/21 04:16:46;;;;;;;32.63;21.87;;;10.30;99.90;;;;;;5052328;28;20201;-66
2022/03/21 04:19:13;;;;;;;27.03;21.50;;;10.30;99.90;;;;;;5053210;28;20199;-66
2022/03/21 04:21:39;;;;;;;27.40;21.00;;;10.40;99.90;;;;;;5052956;28;20215;-66
2022/03/21 04:24:05;;;;;;;24.93;20.57;;;10.40;99.90;;;;;;5053184;28;20420;-66
2022/03/21 04:26:31;;;;;;;24.40;20.33;;;10.40;99.90;;;;;;5053325;28;20458;-66
2022/03/21 04:28:57;;;;;;;21.20;18.43;;;10.40;99.90;;;;;;5052507;28;20473;-66
2022/03/21 04:31:24;;;;;;;24.80;20.10;;;10.40;99.90;;;;;;5053583;28;20196;-66
2022/03/21 04:33:50;;;;;;;22.13;19.47;;;10.40;99.90;;;;;;5052587;28;20435;-66
2022/03/21 04:36:15;;;;;;;23.50;19.07;;;10.40;99.90;;;;;;5053047;28;20885;-65
2022/03/21 04:38:41;;;;;;;24.77;18.70;;;10.30;99.90;;;;;;5052326;28;20183;-66
2022/03/21 04:41:07;;;;;;;27.60;21.13;;;10.30;99.90;;;;;;5053115;28;20651;-66
2022/03/21 04:43:33;;;;;;;24.00;18.93;;;10.20;99.90;;;;;;5053083;28;20416;-66
2022/03/21 04:45:59;;;;;;;25.50;20.47;;;10.20;99.90;;;;;;5052502;28;20694;-66
2022/03/21 04:48:25;;;;;;;26.73;21.13;;;10.20;99.90;;;;;;5053068;28;20419;-65
2022/03/21 04:50:51;;;;;;;21.17;18.50;;;10.10;99.90;;;;;;5052438;28;20199;-66
2022/03/21 04:53:17;;;;;;;23.63;19.27;;;10.10;99.90;;;;;;5052758;28;20172;-66
2022/03/21 04:55:43;;;;;;;24.23;18.80;;;10.10;99.90;;;;;;5052305;28;20474;-66
2022/03/21 04:58:10;;;;;;;28.60;21.40;;;10.00;99.90;;;;;;5051960;28;20775;-67
2022/03/21 05:00:39;;;;;;;27.23;20.17;;;10.00;99.90;;;;;;5052875;28;20455;-66
2022/03/21 05:03:08;;;;;;;28.60;20.73;;;10.00;99.90;;;;;;5052771;28;20413;-66
2022/03/21 05:05:37;;;;;;;26.60;20.17;;;10.00;99.90;;;;;;5052642;28;20511;-67
2022/03/21 05:08:05;;;;;;;26.40;20.87;;;9.90;99.90;;;;;;5052743;28;20444;-67
2022/03/21 05:10:32;;;;;;;29.87;22.40;;;9.90;99.90;;;;;;5051410;28;20422;-67
2022/03/21 05:12:58;;;;;;;28.80;20.47;;;9.90;99.90;;;;;;5052330;28;20440;-67
2022/03/21 05:15:25;;;;;;;24.30;21.70;;;9.90;99.90;;;;;;5052604;28;20475;-67
2022/03/21 05:17:53;;;;;;;25.80;20.80;;;9.90;99.90;;;;;;5051929;28;20413;-67
2022/03/21 05:20:20;;;;;;;25.10;19.67;;;9.80;99.90;;;;;;5052527;28;20521;-66
2022/03/21 05:31:07;;;;;;;27.53;21.10;;;9.70;99.90;;;;;;5052211;28;20428;-67
2022/03/21 05:36:21;;;;;;;32.30;23.53;;;9.70;99.90;;;;;;5052518;28;20414;-67
2022/03/21 05:38:46;;;;;;;28.83;21.03;;;9.70;99.90;;;;;;5051818;28;20440;-67
2022/03/21 05:41:12;;;;;;;25.73;19.70;;;9.70;99.90;;;;;;5052356;28;20462;-67
2022/03/21 05:43:38;;;;;;;23.97;19.30;;;9.80;99.90;;;;;;5051164;28;20182;-66
2022/03/21 05:46:04;;;;;;;24.70;20.80;;;9.80;99.90;;;;;;5051057;28;20466;-67
2022/03/21 05:51:22;;;;;;;24.60;19.07;;;9.70;99.90;;;;;;5056334;28;20230;-67
2022/03/21 05:53:49;;;;;;;27.00;21.97;;;9.70;99.80;;;;;;5055690;28;20412;-66
2022/03/21 05:56:16;;;;;;;27.23;20.33;;;9.70;99.90;;;;;;5056174;28;20417;-67
2022/03/21 05:58:42;;;;;;;25.03;19.83;;;9.60;99.70;;;;;;5055582;28;20416;-75
2022/03/21 06:01:11;;;;;;;24.10;19.47;;;9.60;99.90;;;;;;5056213;28;20452;-67
2022/03/21 06:03:38;;;;;;;30.27;22.00;;;9.70;99.90;;;;;;5055804;28;20492;-66
2022/03/21 06:06:04;;;;;;;26.70;21.87;;;9.60;99.90;;;;;;5055376;28;20460;-67
2022/03/21 06:08:30;;;;;;;26.70;22.20;;;9.60;99.90;;;;;;5056045;28;20462;-67
2022/03/21 06:11:04;;;;;;;30.03;24.47;;;9.60;99.90;;;;;;5054244;28;20413;-67
2022/03/21 06:13:35;;;;;;;26.53;21.73;;;9.60;99.90;;;;;;5055943;28;20411;-67
2022/03/21 06:16:03;;;;;;;28.50;23.10;;;9.60;99.90;;;;;;5054038;28;20417;-67
2022/03/21 06:18:32;;;;;;;30.43;22.20;;;9.60;99.90;;;;;;5055530;28;20916;-67
2022/03/21 06:20:59;;;;;;;24.20;20.93;;;9.50;99.90;;;;;;5053446;28;20959;-67
2022/03/21 06:23:25;;;;;;;23.13;19.60;;;9.50;99.90;;;;;;5054539;28;20411;-67
2022/03/21 06:25:53;;;;;;;27.30;24.10;;;9.50;99.90;;;;;;5055016;28;20463;-67
2022/03/21 06:28:23;;;;;;;28.80;20.97;;;9.50;99.90;;;;;;5055648;28;20412;-67
2022/03/21 06:30:53;;;;;;;25.77;22.00;;;9.50;99.90;;;;;;5054550;28;20421;-67
2022/03/21 06:33:21;;;;;;;27.63;21.40;;;9.50;99.90;;;;;;5055563;28;20405;-67
2022/03/21 06:35:48;;;;;;;29.57;22.40;;;9.60;99.90;;;;;;5053634;28;20430;-67
2022/03/21 06:38:14;;;;;;;27.23;21.80;;;9.60;99.90;;;;;;5055693;28;20775;-67
2022/03/21 06:40:40;;;;;;;26.10;21.50;;;9.60;99.90;;;;;;5054229;28;20486;-67
2022/03/21 06:43:07;;;;;;;27.23;20.40;;;9.70;99.90;;;;;;5053569;28;20439;-67
2022/03/21 06:45:33;;;;;;;28.47;22.37;;;9.80;99.90;;;;;;5054049;28;20474;-67
2022/03/21 06:47:59;;;;;;;27.13;22.40;;;9.80;99.90;;;;;;5054965;28;20476;-67
2022/03/21 06:50:25;;;;;;;28.53;22.53;;;9.90;99.90;;;;;;5054826;28;20470;-67
2022/03/21 06:52:52;;;;;;;33.03;22.10;;;9.90;99.90;;;;;;5053962;28;20409;-67
2022/03/21 06:55:23;;;;;;;25.73;20.43;;;10.00;99.90;;;;;;5053310;28;20420;-67
2022/03/21 06:57:49;;;;;;;27.60;21.80;;;10.10;99.90;;;;;;5053149;28;20840;-67
2022/03/21 07:00:16;;;;;;;28.50;22.27;;;10.00;99.90;;;;;;5053340;28;20456;-67
2022/03/21 07:02:43;;;;;;;27.63;20.63;;;10.10;99.90;;;;;;5053852;28;20601;-67
2022/03/21 07:05:09;;;;;;;28.20;22.50;;;10.20;99.90;;;;;;5052978;28;20422;-67
2022/03/21 07:07:35;;;;;;;26.03;21.67;;;10.20;99.90;;;;;;5055255;28;20412;-67
2022/03/21 07:10:01;;;;;;;27.07;22.00;;;10.20;99.90;;;;;;5054297;28;20412;-67
2022/03/21 07:12:27;;;;;;;24.60;22.00;;;10.20;99.20;;;;;;5036768;28;20501;-66
2022/03/21 07:14:53;;;;;;;26.33;20.20;;;10.30;97.90;;;;;;5054201;28;20511;-66
2022/03/21 07:17:20;;;;;;;29.57;21.37;;;10.40;96.50;;;;;;5054451;28;20187;-67
2022/03/21 07:19:46;;;;;;;23.90;21.07;;;10.50;95.90;;;;;;5054475;28;20211;-66
2022/03/21 07:22:12;;;;;;;26.23;20.77;;;10.50;94.90;;;;;;5053425;28;20833;-67
2022/03/21 07:24:38;;;;;;;24.40;19.90;;;10.70;94.70;;;;;;5054330;28;20553;-67
2022/03/21 07:27:05;;;;;;;23.50;19.53;;;10.80;94.30;;;;;;5053892;28;20466;-67
2022/03/21 07:29:30;;;;;;;23.70;19.10;;;10.90;93.20;;;;;;5054179;28;20837;-67
2022/03/21 07:31:57;;;;;;;22.57;17.70;;;11.00;92.20;;;;;;5053943;28;20457;-67
2022/03/21 07:34:23;;;;;;;22.90;19.50;;;11.10;91.80;;;;;;5054372;28;20300;-67
2022/03/21 07:36:50;;;;;;;22.50;17.60;;;11.30;91.40;;;;;;5053772;28;20463;-67
2022/03/21 07:39:17;;;;;;;22.67;20.20;;;11.40;91.30;;;;;;5054328;28;20450;-67
2022/03/21 07:41:43;;;;;;;26.30;18.23;;;11.50;90.90;;;;;;5054079;28;20503;-67
2022/03/21 07:44:10;;;;;;;22.00;18.53;;;11.60;90.80;;;;;;5053608;28;20445;-67
2022/03/21 07:49:20;;;;;;;20.00;17.40;;;11.80;89.60;;;;;;5054277;28;20406;-67
2022/03/21 07:51:45;;;;;;;24.83;18.07;;;11.90;88.30;;;;;;5053886;28;20752;-66
2022/03/21 07:54:14;;;;;;;19.90;17.80;;;12.00;86.50;;;;;;5052872;28;20416;-67
2022/03/21 07:56:41;;;;;;;20.70;16.10;;;12.10;86.60;;;;;;5053319;28;20238;-67
2022/03/21 07:59:07;;;;;;;20.80;17.67;;;12.20;84.70;;;;;;5034729;28;20427;-67
2022/03/21 08:01:34;;;;;;;20.20;17.90;;;12.30;82.90;;;;;;5053136;28;20421;-67
2022/03/21 08:04:03;;;;;;;19.53;16.73;;;12.40;82.20;;;;;;5053203;28;20442;-67
2022/03/21 08:06:29;;;;;;;18.93;16.50;;;12.50;81.90;;;;;;5052525;28;20541;-67
2022/03/21 08:08:55;;;;;;;19.07;16.20;;;12.50;79.10;;;;;;5053058;28;20433;-67
2022/03/21 08:11:22;;;;;;;18.03;15.10;;;12.70;78.80;;;;;;5053155;28;20417;-67
2022/03/21 08:13:51;;;;;;;19.67;15.67;;;12.80;78.60;;;;;;5052924;28;20418;-67
2022/03/21 08:16:19;;;;;;;19.70;14.50;;;12.90;75.00;;;;;;5053586;28;20410;-67
2022/03/21 08:18:50;;;;;;;20.90;14.63;;;13.00;73.90;;;;;;5053890;28;20434;-67
2022/03/21 08:21:17;;;;;;;18.10;15.20;;;13.10;73.70;;;;;;5053653;28;20974;-67
2022/03/21 08:23:42;;;;;;;18.47;14.30;;;13.30;73.90;;;;;;5053449;28;20417;-67
2022/03/21 08:26:10;;;;;;;21.80;16.10;;;13.40;70.90;;;;;;5052804;28;20461;-67
2022/03/21 08:28:36;;;;;;;19.10;14.57;;;13.50;70.50;;;;;;5053398;28;20212;-67
2022/03/21 08:31:02;;;;;;;18.67;15.07;;;13.70;70.90;;;;;;5052801;28;20431;-67
2022/03/21 08:33:28;;;;;;;16.70;13.73;;;13.70;70.70;;;;;;5053015;28;20425;-67
2022/03/21 08:35:54;;;;;;;17.47;14.60;;;13.80;70.70;;;;;;5051130;28;20773;-73
2022/03/21 08:38:20;;;;;;;18.87;16.70;;;13.70;65.50;;;;;;5034653;28;20188;-67
2022/03/21 08:40:46;;;;;;;16.50;14.53;;;13.80;69.00;;;;;;5053000;28;20415;-66
2022/03/21 08:43:12;;;;;;;18.07;15.27;;;13.90;68.60;;;;;;5052877;28;20216;-66
2022/03/21 08:45:37;;;;;;;19.37;15.60;;;14.00;64.90;;;;;;5053136;28;20551;-67
2022/03/21 08:48:04;;;;;;;17.13;15.33;;;14.10;65.30;;;;;;5052415;28;20416;-67
2022/03/21 08:50:30;;;;;;;17.73;15.83;;;14.20;64.10;;;;;;5052807;28;20213;-67
2022/03/21 08:52:58;;;;;;;19.17;15.20;;;14.40;66.40;;;;;;5052361;28;20405;-67
2022/03/21 08:55:24;;;;;;;18.63;16.50;;;14.40;63.60;;;;;;5053290;28;20413;-67
2022/03/21 08:57:51;;;;;;;17.93;15.33;;;14.40;65.00;;;;;;5052838;28;20411;-66
2022/03/21 09:00:17;;;;;;;18.80;14.50;;;14.50;64.30;;;;;;5052149;28;20468;-66
2022/03/21 09:02:46;;;;;;;19.63;16.23;;;14.50;63.50;;;;;;5052849;28;20470;-66
2022/03/21 09:05:14;;;;;;;18.00;14.60;;;14.70;65.10;;;;;;5052108;28;20404;-66
2022/03/21 09:07:41;;;;;;;19.67;15.33;;;14.80;64.70;;;;;;5052517;28;20405;-66
2022/03/21 09:10:08;;;;;;;17.37;15.57;;;15.00;66.00;;;;;;5052038;28;20410;-67
2022/03/21 09:12:34;;;;;;;15.30;13.50;;;15.10;65.00;;;;;;5052541;28;20421;-66
2022/03/21 09:14:59;;;;;;;17.60;15.70;;;15.20;65.20;;;;;;5052294;28;20798;-67
2022/03/21 09:17:26;;;;;;;18.57;16.70;;;15.20;64.80;;;;;;5052595;28;20266;-67
2022/03/21 09:19:53;;;;;;;16.70;14.90;;;15.20;62.50;;;;;;5052471;28;20227;-66
2022/03/21 09:22:19;;;;;;;16.20;14.17;;;15.20;62.30;;;;;;5052528;28;20419;-66
2022/03/21 09:24:45;;;;;;;18.80;16.90;;;15.30;61.90;;;;;;5052231;28;20422;-66
2022/03/21 09:27:11;;;;;;;16.50;14.80;;;15.40;61.60;;;;;;5051712;28;20273;-67
2022/03/21 09:29:38;;;;;;;18.87;15.47;;;15.60;61.80;;;;;;5052063;28;20412;-67
2022/03/21 09:32:04;;;;;;;18.27;16.37;;;15.70;62.70;;;;;;5051416;28;20420;-67
2022/03/21 09:34:32;;;;;;;18.10;16.40;;;15.80;60.70;;;;;;5052496;28;20434;-66
2022/03/21 09:36:58;;;;;;;17.70;15.47;;;16.00;60.90;;;;;;5051744;28;20437;-67
2022/03/21 09:39:24;;;;;;;17.60;15.80;;;16.20;60.50;;;;;;5052312;28;20424;-66
2022/03/21 09:41:50;;;;;;;17.00;15.37;;;16.60;64.00;;;;;;5052356;28;20951;-66
2022/03/21 09:44:16;;;;;;;16.93;15.23;;;16.90;62.80;;;;;;5051470;28;20174;-67
2022/03/21 09:46:44;;;;;;;19.27;17.57;;;17.20;61.00;;;;;;5052257;28;20865;-67
2022/03/21 09:49:15;;;;;;;17.73;15.33;;;17.50;59.50;;;;;;5051420;28;20535;-67
2022/03/21 09:51:41;;;;;;;17.13;15.40;;;18.00;59.60;;;;;;5052443;28;20400;-67
2022/03/21 09:54:07;;;;;;;20.60;18.50;;;18.10;56.00;;;;;;5051648;28;20427;-67
2022/03/21 09:56:33;;;;;;;17.07;14.70;;;18.40;56.90;;;;;;5052171;28;20448;-66
2022/03/21 09:58:59;;;;;;;16.93;15.20;;;18.70;56.60;;;;;;5051367;28;20443;-67
2022/03/21 10:01:30;;;;;;;17.87;15.63;;;19.00;56.70;;;;;;5052483;28;20823;-67
2022/03/21 10:03:56;;;;;;;17.80;15.97;;;19.40;57.20;;;;;;5052259;28;20414;-67
2022/03/21 10:06:32;;;;;;;15.63;14.13;;;19.70;56.80;;;;;;5052360;28;20863;-67
2022/03/21 10:09:12;;;;;;;16.80;15.10;;;19.90;54.60;;;;;;5051163;28;20934;-67
2022/03/21 10:11:47;;;;;;;17.57;15.73;;;20.10;53.90;;;;;;5052098;28;20404;-67
2022/03/21 10:14:33;;;;;;;17.83;16.13;;;20.40;54.50;;;;;;5051590;28;20423;-67
2022/03/21 10:17:09;;;;;;;19.00;17.07;;;20.60;54.00;;;;;;5051492;28;20441;-67
2022/03/21 10:19:51;;;;;;;20.87;17.43;;;20.90;53.60;;;;;;5052208;28;20907;-66
2022/03/21 10:22:37;;;;;;;17.30;15.60;;;21.10;53.00;;;;;;5050156;28;20652;-67
2022/03/21 10:25:15;;;;;;;18.53;16.63;;;21.30;52.30;;;;;;5051416;28;20495;-67
2022/03/21 10:27:43;;;;;;;20.10;18.10;;;21.60;51.80;;;;;;5052400;28;20419;-67
2022/03/21 10:30:15;;;;;;;17.53;15.93;;;21.70;50.00;;;;;;5051264;28;20405;-67
2022/03/21 10:32:43;;;;;;;16.20;14.60;;;21.70;50.20;;;;;;5051857;28;20420;-67
2022/03/21 10:35:16;;;;;;;18.20;15.50;;;21.80;51.50;;;;;;5051884;28;20408;-67
2022/03/21 10:37:47;;;;;;;19.30;17.30;;;21.80;48.90;;;;;;5055490;28;20408;-67
2022/03/21 10:40:31;;;;;;;18.60;16.60;;;21.90;49.80;;;;;;5054922;28;20727;-67
2022/03/21 10:43:01;;;;;;;18.17;15.60;;;22.00;52.50;;;;;;5055420;28;20423;-67
2022/03/21 10:45:48;;;;;;;17.23;15.43;;;22.20;52.40;;;;;;5055370;28;20404;-67
2022/03/21 10:48:18;;;;;;;18.77;16.97;;;22.40;51.50;;;;;;5054480;28;20758;-67
2022/03/21 10:50:51;;;;;;;19.00;17.00;;;22.60;50.50;;;;;;5055274;28;20404;-67
2022/03/21 10:53:21;;;;;;;16.57;14.97;;;22.60;49.00;;;;;;5053502;28;20489;-67
2022/03/21 10:55:49;;;;;;;18.50;16.67;;;22.70;49.60;;;;;;5055214;28;20416;-67
2022/03/21 10:58:17;;;;;;;18.73;16.73;;;22.70;47.90;;;;;;5053020;28;20416;-67
2022/03/21 11:00:43;;;;;;;18.50;16.63;;;22.80;49.00;;;;;;5053632;28;20426;-67
2022/03/21 11:03:14;;;;;;;18.30;16.40;;;22.80;48.40;;;;;;5054133;28;20906;-67
2022/03/21 11:05:42;;;;;;;18.03;15.93;;;22.80;50.10;;;;;;5054970;28;20794;-67
2022/03/21 11:08:10;;;;;;;16.70;14.70;;;22.90;48.60;;;;;;5054301;28;20412;-67
2022/03/21 11:10:37;;;;;;;19.90;18.10;;;23.00;49.80;;;;;;5054959;28;20416;-67
2022/03/21 11:13:05;;;;;;;19.40;17.60;;;23.20;49.90;;;;;;5054275;28;20434;-67
2022/03/21 11:15:33;;;;;;;17.90;16.20;;;23.20;47.70;;;;;;5054713;28;20483;-67
2022/03/21 11:17:59;;;;;;;17.27;15.40;;;23.30;49.80;;;;;;5054374;28;20400;-67
2022/03/21 11:20:28;;;;;;;17.70;16.00;;;23.30;49.20;;;;;;5054121;28;20448;-67
2022/03/21 11:22:55;;;;;;;18.30;16.40;;;23.30;49.50;;;;;;5053374;28;20428;-67
2022/03/21 11:25:24;;;;;;;16.80;15.23;;;23.30;48.40;;;;;;5053915;28;20636;-67
2022/03/21 11:28:04;;;;;;;16.30;14.80;;;23.30;48.70;;;;;;5054901;28;20809;-67
2022/03/21 11:30:49;;;;;;;17.00;15.30;;;22.90;50.00;;;;;;5054354;28;20424;-67
2022/03/21 11:33:52;;;;;;;17.47;15.73;;;23.00;50.90;;;;;;5053970;28;20409;-67
2022/03/21 11:36:18;;;;;;;17.40;15.70;;;23.10;48.40;;;;;;5053772;28;20420;-67
2022/03/21 11:38:48;;;;;;;16.57;15.03;;;23.20;49.90;;;;;;5054361;28;20415;-67
2022/03/21 11:41:21;;;;;;;17.47;15.97;;;23.30;50.50;;;;;;5053717;28;20178;-67
2022/03/21 11:44:16;;;;;;;15.67;14.20;;;23.50;50.40;;;;;;5054382;28;20408;-67
2022/03/21 11:46:46;;;;;;;16.33;14.77;;;23.70;50.20;;;;;;5053706;28;20546;-67
2022/03/21 11:49:18;;;;;;;16.07;14.60;;;23.80;49.90;;;;;;5053363;28;20828;-67
2022/03/21 11:52:04;;;;;;;17.00;15.50;;;23.80;49.60;;;;;;5053745;28;20419;-67
2022/03/21 11:54:37;;;;;;;17.00;15.50;;;23.90;48.90;;;;;;5053754;28;20404;-67
2022/03/21 11:57:03;;;;;;;16.63;15.30;;;23.90;48.90;;;;;;5053819;28;20432;-75
2022/03/21 11:59:31;;;;;;;14.37;12.97;;;24.00;49.70;;;;;;5053666;28;20769;-67
2022/03/21 12:02:01;;;;;;;15.20;13.60;;;24.00;48.80;;;;;;5052308;28;20424;-67
2022/03/21 12:04:29;;;;;;;15.63;14.13;;;23.70;49.00;;;;;;5053180;28;20419;-67
2022/03/21 12:06:59;;;;;;;14.67;13.27;;;23.50;49.20;;;;;;5053553;28;20870;-67
2022/03/21 12:09:40;;;;;;;17.63;16.23;;;23.60;50.80;;;;;;5053403;28;20412;-67
2022/03/21 12:12:06;;;;;;;15.33;13.10;;;23.70;50.40;;;;;;5052880;28;20401;-67
2022/03/21 12:14:40;;;;;;;14.43;13.00;;;23.80;50.10;;;;;;5053054;28;20915;-67
2022/03/21 12:17:12;;;;;;;16.50;14.97;;;23.90;49.70;;;;;;5052961;28;20465;-73
2022/03/21 12:20:01;;;;;;;14.50;13.20;;;23.90;51.50;;;;;;5052347;28;20478;-67
2022/03/21 12:22:30;;;;;;;16.63;15.33;;;23.90;50.40;;;;;;5052960;28;20413;-67
2022/03/21 12:24:59;;;;;;;13.57;12.27;;;23.40;48.70;;;;;;5053380;28;20424;-67
2022/03/21 12:27:51;;;;;;;12.57;11.27;;;23.30;48.60;;;;;;5052468;28;20521;-67
2022/03/21 12:32:49;;;;;;;12.00;10.87;;;22.50;51.90;;;;;;5053252;28;20422;-67
2022/03/21 12:35:43;;;;;;;10.63;9.63;;;22.70;52.30;;;;;;5052654;28;20475;-67
2022/03/21 12:38:16;;;;;;;11.23;10.30;;;22.70;51.50;;;;;;5052449;28;20412;-67
2022/03/21 12:40:51;;;;;;;11.10;9.90;;;22.70;52.60;;;;;;5053127;28;20400;-67
2022/03/21 12:43:18;;;;;;;11.37;10.23;;;22.70;52.10;;;;;;5052014;28;20423;-67
2022/03/21 12:45:45;;;;;;;11.13;10.23;;;22.70;50.80;;;;;;5052984;28;20460;-67
2022/03/21 12:48:14;;;;;;;11.40;10.30;;;22.50;51.30;;;;;;5052495;28;20754;-67
2022/03/21 12:50:40;;;;;;;11.70;10.50;;;22.70;52.60;;;;;;5051686;28;20510;-67
2022/03/21 12:53:08;;;;;;;13.10;12.00;;;22.80;52.30;;;;;;5051926;28;20451;-74
2022/03/21 12:55:35;;;;;;;10.50;9.30;;;22.80;52.60;;;;;;5052919;28;20416;-67